Time;durP1;ratioP1;P1;durP2;ratioP2;P2;SDS_P1;SDS_P2;PMS_P1;PMS_P2;Temp;Humidity;BMP_temperature;BMP_pressure;BME280_temperature;BME280_humidity;BME280_pressure;Samples;Min_cycle;Max_cycle;Signal;HPM_P1;HPM_P2
2023/09/05 00:01:03;;;;;;;0.00;0.00;;;;;;;18.35;100.00;101996.16;5071957;28;20035;-44
2023/09/05 00:03:31;;;;;;;0.00;0.00;;;;;;;18.34;100.00;101989.00;5073342;28;20040;-44
2023/09/05 00:06:01;;;;;;;0.00;0.00;;;;;;;18.35;100.00;101987.09;5073075;28;20115;-47
2023/09/05 00:08:26;;;;;;;0.00;0.00;;;;;;;18.33;100.00;101987.34;5084420;28;20348;-45
2023/09/05 00:10:51;;;;;;;0.00;0.00;;;;;;;18.31;100.00;101977.69;5072100;28;20553;-47
2023/09/05 00:13:17;;;;;;;0.00;0.00;;;;;;;18.30;100.00;101975.97;5071359;28;20024;-48
2023/09/05 00:15:42;;;;;;;0.00;0.00;;;;;;;18.30;100.00;101976.84;5071102;28;20033;-47
2023/09/05 00:18:08;;;;;;;0.00;0.00;;;;;;;18.31;100.00;101972.22;5071862;28;20092;-48
2023/09/05 00:20:33;;;;;;;0.00;0.00;;;;;;;18.28;100.00;101972.66;5072493;28;20070;-48
2023/09/05 00:22:58;;;;;;;0.00;0.00;;;;;;;18.27;100.00;101973.69;5071695;28;20032;-49
2023/09/05 00:25:24;;;;;;;0.00;0.00;;;;;;;18.27;100.00;101969.06;5071816;28;20479;-49
2023/09/05 00:27:49;;;;;;;0.00;0.00;;;;;;;18.28;100.00;101967.19;5053772;28;20043;-48
2023/09/05 00:30:16;;;;;;;0.00;0.00;;;;;;;18.30;100.00;101970.53;5071417;28;20025;-49
2023/09/05 00:32:42;;;;;;;0.00;0.00;;;;;;;18.31;100.00;101962.16;5071711;28;20024;-47
2023/09/05 00:35:07;;;;;;;0.00;0.00;;;;;;;18.31;100.00;101969.50;5070618;28;20407;-47
2023/09/05 00:37:33;;;;;;;0.00;0.00;;;;;;;18.31;100.00;101961.34;5071210;28;20483;-45
2023/09/05 00:39:58;;;;;;;0.00;0.00;;;;;;;18.31;100.00;101961.34;5070300;28;20108;-46
2023/09/05 00:42:23;;;;;;;0.00;0.00;;;;;;;18.24;100.00;101961.28;5070531;28;20082;-44
2023/09/05 00:44:49;;;;;;;0.00;0.00;;;;;;;18.21;100.00;101965.28;5070172;28;20453;-46
2023/09/05 00:47:15;;;;;;;0.00;0.00;;;;;;;18.19;100.00;101952.91;5069426;28;20083;-44
2023/09/05 00:49:47;;;;;;;0.00;0.00;;;;;;;18.20;100.00;101951.88;5052615;28;20025;-46
2023/09/05 00:52:13;;;;;;;0.00;0.00;;;;;;;18.17;100.00;101955.84;5054010;28;20150;-51
2023/09/05 00:54:40;;;;;;;0.00;0.00;;;;;;;18.17;100.00;101950.41;5074268;28;20029;-47
2023/09/05 00:57:06;;;;;;;0.00;0.00;;;;;;;18.16;100.00;101950.59;5054206;28;20031;-47
2023/09/05 00:59:31;;;;;;;0.00;0.00;;;;;;;18.06;100.00;101942.84;5070783;28;20025;-48
2023/09/05 01:01:56;;;;;;;0.00;0.00;;;;;;;18.05;100.00;101954.75;5051955;28;20052;-46
2023/09/05 01:04:23;;;;;;;0.00;0.00;;;;;;;18.06;100.00;101951.00;5074116;28;20068;-47
2023/09/05 01:06:57;;;;;;;0.00;0.00;;;;;;;18.04;100.00;101942.19;5075851;28;20102;-46
2023/09/05 01:09:29;;;;;;;0.00;0.00;;;;;;;17.99;100.00;101947.41;5080624;28;20394;-49
2023/09/05 01:11:55;;;;;;;0.00;0.00;;;;;;;17.98;100.00;101943.84;5063563;28;20111;-47
2023/09/05 01:14:20;;;;;;;0.00;0.00;;;;;;;17.98;100.00;101940.25;5081999;28;20151;-49
2023/09/05 01:16:46;;;;;;;0.00;0.00;;;;;;;17.89;100.00;101938.78;5070399;28;20029;-46
2023/09/05 01:19:14;;;;;;;0.00;0.00;;;;;;;17.91;100.00;101942.97;5070666;28;20550;-47
2023/09/05 01:21:48;;;;;;;0.00;0.00;;;;;;;17.88;100.00;101942.56;5052631;28;20025;-44
2023/09/05 01:24:20;;;;;;;0.00;0.00;;;;;;;17.91;100.00;101936.69;5057843;28;20028;-47
2023/09/05 01:26:46;;;;;;;0.00;0.00;;;;;;;17.86;100.00;101937.31;5052630;28;20039;-51
2023/09/05 01:29:11;;;;;;;0.00;0.00;;;;;;;17.86;100.00;101936.47;5069578;28;20032;-49
2023/09/05 01:31:38;;;;;;;0.00;0.00;;;;;;;17.82;100.00;101929.72;5060248;28;20033;-47
2023/09/05 01:34:03;;;;;;;0.00;0.00;;;;;;;17.78;100.00;101927.38;5052630;28;20033;-46
2023/09/05 01:36:29;;;;;;;0.00;0.00;;;;;;;17.73;100.00;101932.59;5069769;28;20021;-47
2023/09/05 01:38:55;;;;;;;0.00;0.00;;;;;;;17.67;100.00;101927.16;5070669;28;20453;-48
2023/09/05 01:41:20;;;;;;;0.00;0.00;;;;;;;17.60;100.00;101929.81;5052363;28;20044;-46
2023/09/05 01:43:45;;;;;;;0.00;0.00;;;;;;;17.57;100.00;101932.94;5069699;28;20082;-47
2023/09/05 01:46:11;;;;;;;0.00;0.00;;;;;;;17.52;100.00;101925.38;5070186;28;20534;-47
2023/09/05 01:48:36;;;;;;;0.00;0.00;;;;;;;17.50;100.00;101927.47;5075385;28;20036;-47
2023/09/05 01:51:01;;;;;;;0.00;0.00;;;;;;;17.46;100.00;101931.66;5074500;28;20024;-47
2023/09/05 01:53:27;;;;;;;0.00;0.00;;;;;;;17.43;100.00;101933.91;5073801;28;20032;-47
2023/09/05 01:55:52;;;;;;;0.00;0.00;;;;;;;17.43;100.00;101933.91;5075970;28;20028;-46
2023/09/05 01:58:18;;;;;;;0.00;0.00;;;;;;;17.36;100.00;101941.22;5055253;28;20020;-47
2023/09/05 02:00:43;;;;;;;0.00;0.00;;;;;;;17.32;100.00;101938.91;5080296;28;20028;-46
2023/09/05 02:03:10;;;;;;;0.00;0.00;;;;;;;17.28;100.00;101943.03;5074035;28;20054;-49
2023/09/05 02:05:35;;;;;;;0.00;0.00;;;;;;;17.30;100.00;101937.41;5064015;28;20021;-46
2023/09/05 02:08:01;;;;;;;0.00;0.00;;;;;;;17.28;100.00;101939.50;5074196;28;20562;-45
2023/09/05 02:10:26;;;;;;;0.00;0.00;;;;;;;17.27;100.00;101927.78;5073191;28;20494;-47
2023/09/05 02:12:51;;;;;;;0.00;0.00;;;;;;;17.28;100.00;101926.72;5086567;28;20040;-49
2023/09/05 02:15:17;;;;;;;0.00;0.00;;;;;;;17.29;100.00;101925.66;5073349;28;20036;-48
2023/09/05 02:17:42;;;;;;;0.00;0.00;;;;;;;17.25;100.00;101921.69;5073504;28;20021;-49
2023/09/05 02:20:08;;;;;;;0.00;0.00;;;;;;;17.23;100.00;101917.47;5072773;28;20376;-47
2023/09/05 02:22:33;;;;;;;0.00;0.00;;;;;;;17.20;100.00;101916.00;5073151;28;20032;-47
2023/09/05 02:25:01;;;;;;;0.00;0.00;;;;;;;17.19;100.00;101914.28;5081648;28;20067;-48
2023/09/05 02:27:27;;;;;;;0.00;0.00;;;;;;;17.19;100.00;101911.56;5088241;28;20033;-49
2023/09/05 02:30:01;;;;;;;0.00;0.00;;;;;;;17.21;100.00;101912.22;5072720;28;20467;-49
2023/09/05 02:32:29;;;;;;;0.00;0.00;;;;;;;17.20;100.00;101905.13;5055294;28;20024;-50
2023/09/05 02:34:55;;;;;;;0.00;0.00;;;;;;;17.17;100.00;101905.53;5077144;28;20020;-48
2023/09/05 02:37:20;;;;;;;0.00;0.00;;;;;;;17.21;100.00;101906.78;5055437;28;20116;-49
2023/09/05 02:39:45;;;;;;;0.00;0.00;;;;;;;17.18;100.00;101901.75;5073260;28;20048;-46
2023/09/05 02:42:11;;;;;;;0.00;0.00;;;;;;;17.21;100.00;101905.94;5073208;28;20024;-48
2023/09/05 02:44:36;;;;;;;0.00;0.00;;;;;;;17.18;100.00;101904.47;5073563;28;20360;-48
2023/09/05 02:47:02;;;;;;;0.00;0.00;;;;;;;17.17;100.00;101905.53;5073183;28;20067;-47
2023/09/05 02:49:27;;;;;;;0.00;0.00;;;;;;;17.15;100.00;101910.31;5073076;28;20436;-47
2023/09/05 02:51:52;;;;;;;0.00;0.00;;;;;;;17.19;100.00;101908.84;5073154;28;20127;-45
2023/09/05 02:54:18;;;;;;;0.00;0.00;;;;;;;17.16;100.00;101909.25;5073020;28;20051;-45
2023/09/05 02:56:43;;;;;;;0.00;0.00;;;;;;;17.17;100.00;101913.69;5073044;28;20120;-47
2023/09/05 02:59:09;;;;;;;0.00;0.00;;;;;;;17.15;100.00;101910.31;5073008;28;20478;-45
2023/09/05 03:01:34;;;;;;;0.00;0.00;;;;;;;17.13;100.00;101904.22;5073297;28;20040;-46
2023/09/05 03:03:59;;;;;;;0.00;0.00;;;;;;;17.12;100.00;101902.56;5071667;28;20465;-47
2023/09/05 03:06:25;;;;;;;0.00;0.00;;;;;;;17.09;100.00;101902.97;5073154;28;20071;-45
2023/09/05 03:08:50;;;;;;;0.00;0.00;;;;;;;17.04;100.00;101898.09;5072898;28;20036;-49
2023/09/05 03:11:16;;;;;;;0.00;0.00;;;;;;;17.03;100.00;101896.41;5076146;28;20031;-50
2023/09/05 03:13:42;;;;;;;0.00;0.00;;;;;;;17.00;100.00;101904.13;5064831;28;20025;-48
2023/09/05 03:16:08;;;;;;;0.00;0.00;;;;;;;16.95;100.00;101901.16;5068492;28;20378;-50
2023/09/05 03:18:33;;;;;;;0.00;0.00;;;;;;;16.88;100.00;101901.13;5069726;28;20029;-50
2023/09/05 03:20:58;;;;;;;0.00;0.00;;;;;;;16.85;100.00;101898.78;5065763;28;20033;-50
2023/09/05 03:23:24;;;;;;;0.00;0.00;;;;;;;16.75;100.00;101901.00;5071842;28;20024;-44
2023/09/05 03:25:51;;;;;;;0.00;0.00;;;;;;;16.73;100.00;101900.34;5073578;28;20052;-48
2023/09/05 03:28:16;;;;;;;0.00;0.00;;;;;;;16.67;100.00;101897.38;5071857;28;20028;-47
2023/09/05 03:30:41;;;;;;;0.00;0.00;;;;;;;16.62;100.00;101897.13;5056511;28;20025;-49
2023/09/05 03:33:07;;;;;;;0.00;0.00;;;;;;;16.60;100.00;101899.19;5070425;28;20085;-47
2023/09/05 03:35:33;;;;;;;0.00;0.00;;;;;;;16.55;100.00;101896.22;5070847;28;20031;-46
2023/09/05 03:37:59;;;;;;;0.00;0.00;;;;;;;16.52;100.00;101893.91;5062155;28;20448;-47
2023/09/05 03:40:24;;;;;;;0.00;0.00;;;;;;;16.46;100.00;101898.25;5071234;28;20021;-48
2023/09/05 03:42:50;;;;;;;0.00;0.00;;;;;;;16.45;100.00;101896.53;5072127;28;20032;-48
2023/09/05 03:45:15;;;;;;;0.00;0.00;;;;;;;16.46;100.00;101894.69;5070729;28;20624;-47
2023/09/05 03:47:40;;;;;;;0.00;0.00;;;;;;;16.44;100.00;101894.88;5072322;28;20024;-47
2023/09/05 03:50:07;;;;;;;0.00;0.00;;;;;;;16.44;100.00;101894.88;5072526;28;20436;-44
2023/09/05 03:52:32;;;;;;;0.00;0.00;;;;;;;16.43;100.00;101892.38;5071728;28;20036;-49
2023/09/05 03:54:58;;;;;;;0.00;0.00;;;;;;;16.39;100.00;101875.59;5071486;28;20085;-50
2023/09/05 03:57:23;;;;;;;0.00;0.00;;;;;;;16.37;100.00;101883.09;5054207;28;20537;-45
2023/09/05 03:59:49;;;;;;;0.05;0.00;;;;;;;16.33;100.00;101876.41;5071008;28;20389;-46
2023/09/05 04:02:14;;;;;;;0.00;0.00;;;;;;;16.33;100.00;101876.41;5070749;28;20052;-47
2023/09/05 04:04:39;;;;;;;0.00;0.00;;;;;;;16.33;100.00;101878.28;5071623;28;20020;-47
2023/09/05 04:07:06;;;;;;;0.00;0.00;;;;;;;16.29;100.00;101880.53;5085404;28;20497;-47
2023/09/05 04:09:32;;;;;;;0.00;0.00;;;;;;;16.28;100.00;101878.84;5071065;28;20081;-46
2023/09/05 04:11:57;;;;;;;0.00;0.00;;;;;;;16.25;100.00;101879.25;5071010;28;20442;-48
2023/09/05 04:14:22;;;;;;;0.00;0.00;;;;;;;16.18;100.00;101884.59;5071869;28;20043;-45
2023/09/05 04:16:48;;;;;;;0.00;0.00;;;;;;;16.18;100.00;101890.03;5071645;28;20471;-49
2023/09/05 04:19:13;;;;;;;0.00;0.00;;;;;;;16.13;100.00;101887.06;5071244;28;20044;-48
2023/09/05 04:21:39;;;;;;;0.00;0.00;;;;;;;16.09;100.00;101884.91;5069391;28;20028;-48
2023/09/05 04:24:05;;;;;;;0.00;0.00;;;;;;;16.06;100.00;101883.44;5069134;28;20372;-44
2023/09/05 04:26:33;;;;;;;0.00;0.00;;;;;;;16.04;100.00;101885.50;5052414;28;20032;-50
2023/09/05 04:28:58;;;;;;;;;;;;;;;15.99;100.00;101887.97;5058034;28;20116;-51
2023/09/05 04:31:23;;;;;;;0.00;0.00;;;;;;;15.97;100.00;101881.88;5071214;28;20002;-51
2023/09/05 04:33:50;;;;;;;0.00;0.00;;;;;;;15.94;100.00;101883.09;5076417;28;20368;-48
2023/09/05 04:36:15;;;;;;;0.00;0.00;;;;;;;15.99;100.00;101883.38;5069033;28;20107;-49
2023/09/05 04:38:43;;;;;;;0.00;0.00;;;;;;;15.96;100.00;101872.88;5079175;28;20169;-48
2023/09/05 04:41:09;;;;;;;0.00;0.00;;;;;;;15.96;100.00;101880.19;5070345;28;20032;-50
2023/09/05 04:43:34;;;;;;;0.00;0.00;;;;;;;15.96;100.00;101875.59;5050541;28;20048;-48
2023/09/05 04:46:01;;;;;;;0.00;0.00;;;;;;;15.99;100.00;101886.06;5074232;28;20121;-46
2023/09/05 04:48:26;;;;;;;0.00;0.00;;;;;;;15.98;100.00;101884.41;5075412;28;20449;-47
2023/09/05 04:50:52;;;;;;;0.00;0.00;;;;;;;15.97;100.00;101887.31;5081154;28;20028;-46
2023/09/05 04:53:18;;;;;;;0.00;0.00;;;;;;;15.98;100.00;101891.69;5073000;28;20115;-45
2023/09/05 04:55:43;;;;;;;0.00;0.00;;;;;;;15.98;100.00;101883.53;5076487;28;20119;-45
2023/09/05 04:58:09;;;;;;;0.00;0.00;;;;;;;15.99;100.00;101896.94;5073100;28;20033;-48
2023/09/05 05:00:35;;;;;;;0.00;0.00;;;;;;;15.98;100.00;101883.53;5069204;28;20025;-48
2023/09/05 05:03:00;;;;;;;0.00;0.00;;;;;;;15.96;100.00;101882.91;5077364;28;20059;-45
2023/09/05 05:05:26;;;;;;;0.00;0.00;;;;;;;15.97;100.00;101888.13;5085465;28;20025;-47
2023/09/05 05:07:51;;;;;;;0.00;0.00;;;;;;;15.98;100.00;101889.84;5070161;28;20486;-48
2023/09/05 05:10:16;;;;;;;0.00;0.00;;;;;;;15.94;100.00;101882.25;5052897;28;20032;-47
2023/09/05 05:12:42;;;;;;;0.00;0.00;;;;;;;15.93;100.00;101881.44;5073533;28;20032;-45
2023/09/05 05:15:08;;;;;;;0.00;0.00;;;;;;;15.97;100.00;101890.03;5052268;28;20410;-46
2023/09/05 05:17:34;;;;;;;0.00;0.00;;;;;;;15.99;100.00;101880.66;5070993;28;20440;-46
2023/09/05 05:19:59;;;;;;;0.00;0.00;;;;;;;15.98;100.00;101878.13;5079072;28;20024;-45
2023/09/05 05:22:25;;;;;;;0.00;0.00;;;;;;;15.97;100.00;101882.72;5054276;28;20468;-47
2023/09/05 05:24:51;;;;;;;0.00;0.00;;;;;;;16.00;100.00;101876.06;5050902;28;20593;-47
2023/09/05 05:27:17;;;;;;;0.00;0.00;;;;;;;16.01;100.00;101880.47;5076788;28;20033;-47
2023/09/05 05:29:42;;;;;;;0.00;0.00;;;;;;;16.00;100.00;101882.31;5070438;28;20052;-48
2023/09/05 05:32:08;;;;;;;0.00;0.00;;;;;;;16.09;100.00;101879.47;5070311;28;20482;-51
2023/09/05 05:34:33;;;;;;;0.00;0.00;;;;;;;16.52;100.00;101895.78;5081120;28;20036;-49
2023/09/05 05:36:59;;;;;;;0.00;0.00;;;;;;;17.06;100.00;101901.47;5080257;28;20025;-50
2023/09/05 05:39:25;;;;;;;0.00;0.00;;;;;;;17.87;100.00;101900.84;5070015;28;20032;-46
2023/09/05 05:41:51;;;;;;;0.03;0.00;;;;;;;18.84;100.00;101877.72;5071674;28;20037;-47
2023/09/05 05:44:16;;;;;;;0.00;0.00;;;;;;;19.76;100.00;101861.28;5090795;28;20032;-49
2023/09/05 05:46:43;;;;;;;0.00;0.00;;;;;;;20.50;100.00;101854.25;5072626;28;20025;-49
2023/09/05 05:49:09;;;;;;;0.00;0.00;;;;;;;21.02;100.00;101854.00;5070717;28;20267;-48
2023/09/05 05:51:35;;;;;;;0.00;0.00;;;;;;;21.62;100.00;101848.69;5069550;28;20028;-47
2023/09/05 05:54:01;;;;;;;0.00;0.00;;;;;;;22.26;100.00;101851.78;5084448;28;20032;-48
2023/09/05 05:56:26;;;;;;;0.00;0.00;;;;;;;22.32;100.00;101841.75;5051315;28;20029;-47
2023/09/05 05:58:52;;;;;;;0.00;0.00;;;;;;;22.63;100.00;101842.53;5050098;28;20028;-50
2023/09/05 06:01:20;;;;;;;0.00;0.00;;;;;;;22.79;100.00;101848.13;5068773;28;20033;-46
2023/09/05 06:03:46;;;;;;;0.00;0.00;;;;;;;22.98;100.00;101846.09;5068490;28;20135;-47
2023/09/05 06:06:12;;;;;;;0.00;0.00;;;;;;;23.58;100.00;101850.38;5076957;28;20039;-49
2023/09/05 06:08:37;;;;;;;0.00;0.00;;;;;;;23.25;100.00;101855.72;5076975;28;20139;-49
2023/09/05 06:11:03;;;;;;;0.00;0.00;;;;;;;22.55;100.00;101855.50;5088102;28;20035;-47
2023/09/05 06:13:28;;;;;;;0.00;0.00;;;;;;;21.73;100.00;101855.28;5075934;28;20036;-49
2023/09/05 06:15:54;;;;;;;0.00;0.00;;;;;;;21.31;100.00;101852.41;5069696;28;20165;-47
2023/09/05 06:18:19;;;;;;;0.20;0.00;;;;;;;20.71;100.00;101850.31;5069479;28;20059;-48
2023/09/05 06:20:45;;;;;;;0.00;0.00;;;;;;;20.34;100.00;101855.63;5069400;28;20509;-47
2023/09/05 06:23:10;;;;;;;0.00;0.00;;;;;;;20.06;100.00;101849.75;5070004;28;20017;-48
2023/09/05 06:25:35;;;;;;;0.00;0.00;;;;;;;19.60;100.00;101851.66;5069356;28;20041;-48
2023/09/05 06:28:02;;;;;;;0.00;0.00;;;;;;;19.17;100.00;101846.81;5069671;28;20098;-47
2023/09/05 06:30:28;;;;;;;0.00;0.00;;;;;;;18.81;100.00;101853.59;5069961;28;20020;-46
2023/09/05 06:32:53;;;;;;;0.00;0.00;;;;;;;18.60;100.00;101859.25;5074205;28;20320;-47
2023/09/05 06:35:19;;;;;;;0.00;0.00;;;;;;;18.52;100.00;101859.47;5077045;28;20078;-47
2023/09/05 06:37:44;;;;;;;0.00;0.00;;;;;;;18.48;100.00;101853.56;5075191;28;20028;-51
2023/09/05 06:40:15;;;;;;;0.00;0.00;;;;;;;18.53;100.00;101855.66;5089314;28;20046;-48
2023/09/05 06:42:43;;;;;;;0.00;0.00;;;;;;;18.54;100.00;101852.75;5085935;28;20040;-50
2023/09/05 06:45:09;;;;;;;0.00;0.00;;;;;;;19.13;100.00;101861.09;5083302;28;20031;-48
2023/09/05 06:47:35;;;;;;;0.00;0.00;;;;;;;20.49;100.00;101854.50;5090727;28;20036;-53
2023/09/05 06:50:06;;;;;;;0.00;0.00;;;;;;;21.78;100.00;101854.59;5073121;28;20029;-47
2023/09/05 06:52:32;;;;;;;0.00;0.00;;;;;;;22.89;100.00;101855.75;5090957;28;20028;-46
2023/09/05 06:54:57;;;;;;;0.00;0.00;;;;;;;23.94;100.00;101847.53;5093362;28;20436;-51
2023/09/05 06:57:23;;;;;;;0.00;0.00;;;;;;;24.44;100.00;101849.50;5090593;28;20093;-47
2023/09/05 06:59:51;;;;;;;0.45;0.00;;;;;;;25.60;100.00;101848.66;5073336;28;20028;-46
2023/09/05 07:02:16;;;;;;;0.00;0.00;;;;;;;26.17;100.00;101858.34;5071482;28;20052;-51
2023/09/05 07:04:42;;;;;;;0.00;0.00;;;;;;;26.70;98.26;101856.63;5071064;28;20108;-49
2023/09/05 07:07:08;;;;;;;0.00;0.00;;;;;;;26.71;98.91;101852.75;5070685;28;20031;-47
2023/09/05 07:09:34;;;;;;;0.00;0.00;;;;;;;26.75;99.41;101851.09;5070776;28;20025;-47
2023/09/05 07:11:59;;;;;;;0.00;0.00;;;;;;;27.46;94.23;101856.22;5070770;28;20123;-46
2023/09/05 07:14:25;;;;;;;0.00;0.00;;;;;;;27.87;90.67;101858.28;5070891;28;20025;-47
2023/09/05 07:16:50;;;;;;;0.00;0.00;;;;;;;27.84;92.21;101853.31;5071037;28;20025;-46
2023/09/05 07:19:16;;;;;;;0.00;0.00;;;;;;;27.72;90.98;101859.88;5071954;28;20098;-49
2023/09/05 07:21:42;;;;;;;0.00;0.00;;;;;;;27.36;94.86;101854.25;5072572;28;20476;-48
2023/09/05 07:24:13;;;;;;;0.00;0.00;;;;;;;27.97;93.36;101853.59;5072482;28;20020;-49
2023/09/05 07:26:39;;;;;;;0.00;0.00;;;;;;;29.00;88.17;101857.16;5054276;28;20055;-48
2023/09/05 07:29:05;;;;;;;0.00;0.00;;;;;;;29.21;85.87;101855.16;5072394;28;20025;-49
2023/09/05 07:31:31;;;;;;;;;;;;;;;29.69;82.71;101863.00;5073169;28;20299;-45
2023/09/05 07:33:59;;;;;;;0.00;0.00;;;;;;;30.32;81.74;101854.81;5054366;28;20331;-46
2023/09/05 07:36:26;;;;;;;0.00;0.00;;;;;;;30.54;79.97;101848.75;5072572;28;20020;-47
2023/09/05 07:38:51;;;;;;;0.00;0.00;;;;;;;30.31;78.47;101844.81;5072332;28;20218;-45
2023/09/05 07:41:17;;;;;;;0.00;0.00;;;;;;;30.63;77.42;101841.47;5072518;28;20394;-47
2023/09/05 07:43:42;;;;;;;0.00;0.00;;;;;;;30.27;78.78;101831.81;5071648;28;20024;-49
2023/09/05 07:46:07;;;;;;;0.00;0.00;;;;;;;29.16;82.08;101834.97;5072249;28;20339;-50
2023/09/05 07:48:33;;;;;;;0.00;0.00;;;;;;;29.18;84.21;101833.56;5072267;28;20397;-47
2023/09/05 07:51:01;;;;;;;0.00;0.00;;;;;;;29.25;82.99;101836.00;5071993;28;20021;-44
2023/09/05 07:53:27;;;;;;;0.00;0.00;;;;;;;29.86;79.96;101832.94;5072696;28;20114;-47
2023/09/05 07:55:52;;;;;;;0.00;0.00;;;;;;;30.03;80.04;101838.06;5072108;28;20104;-48
2023/09/05 07:58:18;;;;;;;0.00;0.00;;;;;;;30.13;80.51;101831.63;5071942;28;20042;-45
2023/09/05 08:00:43;;;;;;;0.00;0.00;;;;;;;29.66;81.08;101833.88;5070826;28;20505;-47
2023/09/05 08:03:08;;;;;;;0.00;0.00;;;;;;;30.00;81.80;101826.72;5053727;28;20048;-48
2023/09/05 08:05:34;;;;;;;0.00;0.00;;;;;;;30.41;79.93;101816.13;5072059;28;20557;-45
2023/09/05 08:07:59;;;;;;;0.00;0.00;;;;;;;31.24;77.57;101816.88;5072302;28;20055;-48
2023/09/05 08:10:25;;;;;;;0.00;0.00;;;;;;;31.59;73.58;101823.94;5071933;28;20044;-45
2023/09/05 08:12:50;;;;;;;0.00;0.00;;;;;;;31.55;71.97;101833.19;5072279;28;20158;-47
2023/09/05 08:15:16;;;;;;;0.00;0.00;;;;;;;31.31;74.82;101828.47;5072321;28;20029;-47
2023/09/05 08:17:41;;;;;;;0.00;0.00;;;;;;;30.10;75.54;101823.88;5072016;28;20024;-45
2023/09/05 08:20:07;;;;;;;0.00;0.00;;;;;;;30.68;74.77;101839.75;5053711;28;20039;-45
2023/09/05 08:22:32;;;;;;;0.00;0.00;;;;;;;30.69;78.38;101838.63;5071912;28;20031;-48
2023/09/05 08:24:59;;;;;;;0.00;0.00;;;;;;;30.78;77.81;101846.03;5071139;28;20070;-49
2023/09/05 08:27:28;;;;;;;0.00;0.00;;;;;;;31.33;75.61;101850.41;5071409;28;20040;-44
2023/09/05 08:29:57;;;;;;;0.00;0.00;;;;;;;30.59;74.28;101847.88;5071495;28;20043;-46
2023/09/05 08:32:23;;;;;;;0.00;0.00;;;;;;;30.68;76.02;101848.94;5071103;28;20029;-44
2023/09/05 08:34:48;;;;;;;0.00;0.00;;;;;;;31.49;75.01;101851.88;5071343;28;20020;-49
2023/09/05 08:37:13;;;;;;;0.00;0.00;;;;;;;31.53;73.27;101852.97;5071229;28;20466;-47
2023/09/05 08:39:39;;;;;;;0.00;0.00;;;;;;;32.26;71.86;101851.59;5071440;28;20060;-50
2023/09/05 08:42:06;;;;;;;0.00;0.00;;;;;;;31.88;71.97;101851.59;5071034;28;20036;-50
2023/09/05 08:44:42;;;;;;;0.00;0.00;;;;;;;32.63;68.17;101849.84;5070773;28;20031;-48
2023/09/05 08:47:08;;;;;;;0.00;0.00;;;;;;;31.54;72.01;101853.78;5071584;28;20029;-47
2023/09/05 08:49:33;;;;;;;0.00;0.00;;;;;;;32.27;69.97;101849.63;5070484;28;20086;-47
2023/09/05 08:52:02;;;;;;;0.00;0.00;;;;;;;33.47;66.86;101845.94;5053039;28;20028;-45
2023/09/05 08:54:28;;;;;;;0.00;0.00;;;;;;;33.48;65.09;101855.97;5053013;28;20510;-48
2023/09/05 08:56:53;;;;;;;0.00;0.00;;;;;;;33.19;67.11;101864.69;5053398;28;20040;-47
2023/09/05 08:59:19;;;;;;;0.00;0.00;;;;;;;34.10;63.77;101866.59;5070982;28;20107;-46
2023/09/05 09:01:45;;;;;;;0.00;0.00;;;;;;;34.07;66.22;101876.44;5071231;28;20475;-45
2023/09/05 09:04:10;;;;;;;0.00;0.00;;;;;;;33.97;63.54;101873.03;5071086;28;20382;-47
2023/09/05 09:06:36;;;;;;;0.00;0.00;;;;;;;33.73;64.01;101871.34;5071424;28;20100;-47
2023/09/05 09:09:03;;;;;;;0.00;0.00;;;;;;;34.20;62.98;101877.50;5052737;28;20479;-49
2023/09/05 09:11:28;;;;;;;0.00;0.00;;;;;;;34.18;65.12;101877.00;5071018;28;20120;-45
2023/09/05 09:13:58;;;;;;;0.00;0.00;;;;;;;33.14;63.74;101870.38;5071241;28;20482;-46
2023/09/05 09:16:23;;;;;;;0.00;0.00;;;;;;;33.19;68.79;101864.69;5071055;28;20033;-48
2023/09/05 09:18:49;;;;;;;0.00;0.00;;;;;;;33.33;63.42;101865.47;5070966;28;20029;-49
2023/09/05 09:21:18;;;;;;;0.00;0.00;;;;;;;33.47;64.72;101864.63;5070640;28;20025;-47
2023/09/05 09:23:44;;;;;;;0.00;0.00;;;;;;;33.69;64.48;101866.69;5070340;28;20017;-46
2023/09/05 09:26:10;;;;;;;;;;;;;;;34.21;64.30;101856.00;5052931;28;20506;-44
2023/09/05 09:28:37;;;;;;;;;;;;;;;33.92;64.02;101842.44;5070648;28;19938;-50
2023/09/05 09:31:08;;;;;;;0.00;0.00;;;;;;;35.33;58.88;101841.72;5070771;28;19912;-47
2023/09/05 09:33:33;;;;;;;0.00;0.00;;;;;;;35.58;58.11;101845.75;5070325;28;20028;-47
2023/09/05 09:36:05;;;;;;;0.00;0.00;;;;;;;35.47;56.48;101836.00;5069434;28;20595;-49
2023/09/05 09:38:31;;;;;;;0.00;0.00;;;;;;;34.81;61.29;101824.78;5070788;28;20085;-43
2023/09/05 09:41:00;;;;;;;0.00;0.00;;;;;;;34.43;60.13;101830.78;5069620;28;20020;-45
2023/09/05 09:43:44;;;;;;;0.00;0.00;;;;;;;33.91;62.62;101832.38;5071007;28;20033;-45
2023/09/05 09:46:09;;;;;;;0.00;0.00;;;;;;;33.77;62.57;101833.25;5052469;28;20044;-45
2023/09/05 09:48:36;;;;;;;0.00;0.00;;;;;;;33.41;63.86;101834.06;5070243;28;20103;-46
2023/09/05 09:51:05;;;;;;;0.00;0.00;;;;;;;32.49;67.31;101830.34;5070404;28;20328;-46
2023/09/05 09:53:38;;;;;;;0.00;0.00;;;;;;;32.67;67.25;101836.13;5069791;28;20064;-47
2023/09/05 09:56:08;;;;;;;0.00;0.00;;;;;;;32.14;68.42;101829.78;5070682;28;20028;-47
2023/09/05 09:58:34;;;;;;;0.00;0.00;;;;;;;31.32;70.62;101823.75;5070502;28;20044;-47
2023/09/05 10:01:01;;;;;;;0.00;0.00;;;;;;;30.35;77.20;101828.41;5052062;28;20028;-46
2023/09/05 10:03:26;;;;;;;0.00;0.00;;;;;;;29.35;80.36;101816.56;5070446;28;20087;-48
2023/09/05 10:05:52;;;;;;;0.00;0.00;;;;;;;29.13;83.13;101814.19;5070213;28;20020;-46
2023/09/05 10:08:19;;;;;;;0.00;0.00;;;;;;;28.56;86.29;101809.88;5055368;28;20028;-45
2023/09/05 10:10:45;;;;;;;0.00;0.00;;;;;;;27.84;88.04;101814.59;5056195;28;20382;-46
2023/09/05 10:13:11;;;;;;;0.00;0.00;;;;;;;27.40;92.01;101813.06;5074101;28;20032;-45
2023/09/05 10:15:37;;;;;;;0.00;0.00;;;;;;;27.31;94.01;101804.47;5056172;28;20037;-50
2023/09/05 10:18:02;;;;;;;0.00;0.00;;;;;;;27.26;94.26;101803.63;5055993;28;20028;-46
2023/09/05 10:20:30;;;;;;;0.00;0.00;;;;;;;27.20;95.75;101808.31;5074096;28;20065;-47
2023/09/05 10:22:55;;;;;;;0.00;0.00;;;;;;;26.70;97.58;101798.63;5073998;28;20116;-47
2023/09/05 10:25:21;;;;;;;0.00;0.00;;;;;;;27.00;98.62;101799.88;5054326;28;20351;-47
2023/09/05 10:27:46;;;;;;;0.00;0.00;;;;;;;27.14;95.39;101801.03;5036009;28;20033;-48
2023/09/05 10:30:12;;;;;;;0.00;0.00;;;;;;;26.99;95.43;101798.22;5053483;28;20036;-47
2023/09/05 10:32:44;;;;;;;0.00;0.00;;;;;;;27.08;93.52;101796.59;5054126;28;20084;-46
2023/09/05 10:35:10;;;;;;;0.00;0.00;;;;;;;27.02;93.99;101793.00;5054025;28;20025;-47
2023/09/05 10:37:58;;;;;;;0.00;0.00;;;;;;;26.99;95.27;101795.44;5053909;28;20027;-46
2023/09/05 10:40:39;;;;;;;0.00;0.00;;;;;;;26.81;94.67;101792.06;5053499;28;20028;-45
2023/09/05 10:43:06;;;;;;;0.00;0.00;;;;;;;26.65;96.62;101784.81;5053092;28;20025;-48
2023/09/05 10:45:36;;;;;;;0.00;0.00;;;;;;;26.90;97.94;101790.44;5053377;28;20082;-47
2023/09/05 10:48:12;;;;;;;0.00;0.00;;;;;;;27.03;96.78;101791.06;5035852;28;20046;-46
2023/09/05 10:51:10;;;;;;;0.00;0.00;;;;;;;27.07;96.27;101789.44;5053697;28;20032;-48
2023/09/05 10:53:40;;;;;;;0.00;0.00;;;;;;;27.26;95.77;101796.16;5053743;28;20025;-48
2023/09/05 10:56:26;;;;;;;0.00;0.00;;;;;;;27.46;92.82;101792.63;5053002;28;20033;-48
2023/09/05 10:58:54;;;;;;;0.00;0.00;;;;;;;27.49;94.75;101781.03;5053359;28;20037;-44
2023/09/05 11:01:45;;;;;;;0.00;0.00;;;;;;;27.47;93.02;101777.69;5052996;28;20029;-47
2023/09/05 11:04:17;;;;;;;0.00;0.00;;;;;;;27.61;92.47;101778.00;5043953;28;20522;-46
2023/09/05 11:06:52;;;;;;;0.00;0.00;;;;;;;27.81;92.72;101781.94;5052693;28;20147;-47
2023/09/05 11:09:18;;;;;;;0.00;0.00;;;;;;;28.37;91.67;101785.50;5053232;28;20021;-46
2023/09/05 11:11:45;;;;;;;0.00;0.00;;;;;;;29.65;87.94;101779.53;5034817;28;20025;-46
2023/09/05 11:14:10;;;;;;;0.00;0.00;;;;;;;30.49;85.23;101772.97;5061962;28;20028;-48
2023/09/05 11:16:49;;;;;;;0.00;0.00;;;;;;;31.46;81.41;101778.19;5054077;28;20492;-48
2023/09/05 11:19:42;;;;;;;0.00;0.00;;;;;;;32.83;75.20;101787.28;5072719;28;20033;-46